Pagina principale
METAR-TAF:

METAR-TAF

Aeroporti :

Aeroporto di Dubrovnik

Ragusa, Croazia

latitudine: 42-34N, longitudine: 018-16E, altezza: 157 m

Osservazione

Il bollettino è stato emesso 19 minuti fa, alle 03:00 UTC
Vento 7 kt da est
Temperature 17°C
Umidità 55%
Pressione 1017 hPa
Visibilità 10 km o più
nessuna nube inferiore a 1500 m e nessun cumulonembo

METAR: LDDU 160300Z 09007KT CAVOK 17/08 Q1017 NOSIG

Ora: 05:19 (03:19 UTC)

Previsione

Il bollettino è stato emesso 3 ore e 54 minuti fa, alle 23:25 UTC
Previsione valida dal 16 alle 00 UTC al 17 alle 00 UTC
Vento 4 kt da est
Visibilità 10 km o più
nessuna nube inferiore a 1500 m e nessun cumulonembo
Evoluzione graduale
dal 16 alle 07 UTC al 16 alle 09 UTC
Vento 10 kt da sud-est
Evoluzione graduale
dal 16 alle 12 UTC al 16 alle 14 UTC
Vento 2 kt da direzioni variabili

TAF: LDDU 152325Z 1600/1700 09004KT CAVOK TX22/1613Z TN15/1605Z BECMG 1607/1609 14010KT BECMG 1612/1614 VRB02KT

Osservazioni e previsioni meteorologiche di più di 4000 aeroporti (messaggi METAR e TAF).

Le stazioni disponibili sono rappresentate dai dischi gialli e rossi sulla carta.

Puntare il mouse per vedere il nome della stazione.

Clicca sopra per visualizzare le osservazioni e previsioni meteorologiche.

Per cambiare la mappa : fare clic sui pulsanti verdi con una croce nera per ingrandire, il pulsante verde con un trattino per diminuire, o sulla freccia verde per le mappe adiacenti.


METAR-TAF: